CYFD weather

Brantford Municipal Airport
Brantford, Ontario, Canada

Public forecast

Using degrees Celsius for public forecast. Weather courtesy of forecast.io.

Closest aviation weather report (METAR) to Brantford Municipal Airport

Closest report is John C. Munro Hamilton International Airport, 18.0 nm (33.4 km) E. Retrieved 2019/10/20 01:00 UTC (49 minutes ago):

CYHM 200100Z 06008KT 15SM BKN230 08/07 A2990 RMK CI5 SLP134

Closest aviation forecast (TAF) to Brantford Municipal Airport

Closest forecast is John C. Munro Hamilton International Airport, 18.0 nm (33.4 km) E. Retrieved 2019-10-20 00:39 UTC (1 hour ago):

TAF CYHM 192338Z 2000/2024 05007KT P6SM FEW015 BKN250 FM200900 VRB03KT P6SM SCT180 PROB30 2009/2014 1SM BR FM202100 18007KT P6SM BKN090 RMK NXT FCST BY 200600Z